Time;durP1;ratioP1;P1;durP2;ratioP2;P2;SDS_P1;SDS_P2;PMS_P1;PMS_P2;Temp;Humidity;BMP_temperature;BMP_pressure;BME280_temperature;BME280_humidity;BME280_pressure;Samples;Min_cycle;Max_cycle;Signal;HPM_P1;HPM_P2
2021/08/14 00:02:16;;;;;;;11.02;2.72;;;;;;;14.36;51.98;102003.19;5033749;28;20044;-70
2021/08/14 00:04:41;;;;;;;14.20;3.00;;;;;;;14.30;52.02;102003.44;5023135;28;20114;-71
2021/08/14 00:07:07;;;;;;;14.90;2.95;;;;;;;14.55;51.80;101998.13;5036851;28;20021;-71
2021/08/14 00:09:34;;;;;;;14.07;2.63;;;;;;;14.51;51.67;102007.03;5035738;28;20033;-71
2021/08/14 00:12:03;;;;;;;8.88;2.83;;;;;;;14.40;51.82;102003.94;5032542;28;20507;-71
2021/08/14 00:14:29;;;;;;;12.70;2.67;;;;;;;14.31;51.97;101999.88;5033811;28;20104;-70
2021/08/14 00:16:55;;;;;;;10.10;2.70;;;;;;;14.48;51.63;101999.28;5032533;28;20593;-71
2021/08/14 00:19:20;;;;;;;11.43;2.83;;;;;;;14.49;51.73;101992.25;5017117;28;20664;-70
2021/08/14 00:21:46;;;;;;;8.93;2.88;;;;;;;14.53;51.67;102004.38;5033519;28;20072;-71
2021/08/14 00:24:11;;;;;;;14.27;3.17;;;;;;;14.49;51.92;101997.50;5033984;28;20044;-70
2021/08/14 00:26:37;;;;;;;12.70;3.38;;;;;;;14.57;51.74;101995.44;5052354;28;20082;-71
2021/08/14 00:29:03;;;;;;;10.00;3.05;;;;;;;14.54;51.64;101995.53;5036464;28;20041;-70
2021/08/14 00:31:29;;;;;;;10.38;4.22;;;;;;;14.54;51.44;101992.91;5036426;28;20029;-71
2021/08/14 00:33:55;;;;;;;7.38;2.80;;;;;;;14.63;51.75;101989.91;5033393;28;20024;-71
2021/08/14 00:36:21;;;;;;;15.35;3.67;;;;;;;14.63;51.48;101981.16;5036268;28;20037;-69
2021/08/14 00:38:47;;;;;;;8.23;3.25;;;;;;;14.55;51.74;101981.50;5033175;28;20533;-70
2021/08/14 00:41:12;;;;;;;10.13;3.28;;;;;;;14.57;51.75;101979.66;5033609;28;20037;-70
2021/08/14 00:43:39;;;;;;;9.90;3.63;;;;;;;14.45;51.86;101977.50;5044834;28;20025;-71
2021/08/14 00:46:05;;;;;;;7.82;2.72;;;;;;;14.50;51.85;101978.16;5035739;28;20045;-70
2021/08/14 00:48:30;;;;;;;7.30;2.38;;;;;;;14.52;52.00;101982.47;5037960;28;20110;-70
2021/08/14 00:50:57;;;;;;;8.60;3.13;;;;;;;14.47;52.63;101973.03;5032720;28;20079;-70
2021/08/14 00:53:22;;;;;;;11.90;3.95;;;;;;;14.34;52.72;101967.34;5039397;28;20033;-70
2021/08/14 00:55:50;;;;;;;10.57;2.63;;;;;;;14.58;52.03;101959.47;5035805;28;20046;-70
2021/08/14 00:58:15;;;;;;;12.38;4.25;;;;;;;14.08;53.50;101965.72;5031713;28;20069;-70
2021/08/14 01:00:42;;;;;;;11.65;3.53;;;;;;;14.25;53.20;101963.28;5034303;28;20451;-70
2021/08/14 01:03:08;;;;;;;11.73;3.50;;;;;;;14.09;53.42;101956.91;5021724;28;20080;-71
2021/08/14 01:05:41;;;;;;;7.60;2.55;;;;;;;14.38;52.87;101954.94;5036467;28;20047;-70
2021/08/14 01:08:06;;;;;;;17.05;6.03;;;;;;;14.03;53.93;101967.66;5035328;28;20060;-70
2021/08/14 01:10:32;;;;;;;17.65;3.53;;;;;;;14.33;52.86;101955.97;5033807;28;20155;-70
2021/08/14 01:12:59;;;;;;;16.75;3.78;;;;;;;14.31;52.82;101947.28;5020056;28;20057;-71
2021/08/14 01:15:24;;;;;;;9.00;3.03;;;;;;;14.33;52.77;101945.47;5036279;28;20032;-71
2021/08/14 01:17:50;;;;;;;9.57;3.28;;;;;;;14.28;52.97;101938.69;5038016;28;20406;-71
2021/08/14 01:20:16;;;;;;;9.55;3.50;;;;;;;14.33;52.69;101934.94;5037495;28;20479;-71
2021/08/14 01:22:41;;;;;;;11.38;3.10;;;;;;;14.11;53.61;101936.69;5037783;28;20035;-71
2021/08/14 01:25:08;;;;;;;8.93;3.08;;;;;;;14.13;53.56;101937.50;5041506;28;20036;-71
2021/08/14 01:27:35;;;;;;;7.68;3.28;;;;;;;14.34;52.80;101935.78;5037760;28;20082;-72
2021/08/14 01:30:01;;;;;;;10.68;2.80;;;;;;;14.46;52.79;101939.75;5035144;28;20040;-71
2021/08/14 01:32:27;;;;;;;13.95;3.05;;;;;;;14.46;52.67;101931.88;5034087;28;20494;-71
2021/08/14 01:34:52;;;;;;;13.07;3.22;;;;;;;14.47;52.63;101938.84;5041517;28;20090;-71
2021/08/14 01:37:18;;;;;;;11.15;2.72;;;;;;;14.49;52.62;101940.47;5021027;28;20095;-70
2021/08/14 01:39:43;;;;;;;12.57;2.65;;;;;;;14.49;52.43;101943.09;5035310;28;20443;-70
2021/08/14 01:42:09;;;;;;;9.55;2.30;;;;;;;14.51;52.41;101936.00;5035879;28;20587;-70
2021/08/14 01:44:36;;;;;;;12.77;3.25;;;;;;;14.52;52.38;101936.88;5041273;28;20025;-70
2021/08/14 01:47:02;;;;;;;13.65;3.25;;;;;;;14.54;52.28;101938.53;5036662;28;20025;-70
2021/08/14 01:49:28;;;;;;;7.28;3.28;;;;;;;14.56;52.17;101931.41;5033367;28;20041;-70
2021/08/14 01:51:54;;;;;;;15.80;3.40;;;;;;;14.50;52.46;101928.19;5035435;28;20108;-69
2021/08/14 01:54:20;;;;;;;10.05;3.67;;;;;;;14.40;52.61;101925.03;5039757;28;20688;-70
2021/08/14 01:56:46;;;;;;;10.10;3.00;;;;;;;13.92;54.09;101921.63;5036363;28;20063;-71
2021/08/14 01:59:12;;;;;;;11.55;3.88;;;;;;;14.29;52.85;101914.09;5037097;28;20040;-71
2021/08/14 02:01:38;;;;;;;11.90;3.20;;;;;;;14.32;52.63;101914.84;5045773;28;20029;-70
2021/08/14 02:04:04;;;;;;;16.45;4.03;;;;;;;14.32;52.61;101909.56;5035129;28;20089;-71
2021/08/14 02:06:30;;;;;;;13.15;3.25;;;;;;;14.26;52.93;101909.81;5043507;28;20043;-71
2021/08/14 02:08:56;;;;;;;18.73;3.85;;;;;;;14.22;52.83;101910.84;5035654;28;20029;-70
2021/08/14 02:11:23;;;;;;;9.23;3.15;;;;;;;14.27;52.90;101908.03;5035122;28;20021;-70
2021/08/14 02:13:50;;;;;;;11.18;4.22;;;;;;;14.19;52.96;101908.34;5041647;28;20043;-70
2021/08/14 02:16:16;;;;;;;13.80;3.03;;;;;;;14.00;53.86;101904.69;5035768;28;20044;-70
2021/08/14 02:18:42;;;;;;;5.95;2.55;;;;;;;14.18;53.40;101898.72;5037807;28;20033;-70
2021/08/14 02:21:08;;;;;;;9.77;3.17;;;;;;;14.20;53.39;101901.28;5036853;28;20525;-71
2021/08/14 02:23:35;;;;;;;11.77;3.42;;;;;;;14.22;53.44;101899.47;5035877;28;20668;-71
2021/08/14 02:26:00;;;;;;;12.43;3.90;;;;;;;14.22;53.41;101899.47;5034404;28;20032;-70
2021/08/14 02:28:27;;;;;;;12.50;2.95;;;;;;;13.96;54.04;101913.59;5040919;28;21041;-72
2021/08/14 02:30:53;;;;;;;7.60;4.15;;;;;;;14.02;54.14;101903.72;5038830;28;20123;-70
2021/08/14 02:33:18;;;;;;;26.85;3.95;;;;;;;14.05;53.82;101903.59;5035946;28;20080;-69
2021/08/14 02:35:44;;;;;;;14.27;3.78;;;;;;;14.06;53.65;101905.31;5018371;28;20029;-71
2021/08/14 02:38:09;;;;;;;15.43;3.33;;;;;;;14.26;53.13;101906.31;5020525;28;20057;-71
2021/08/14 02:40:36;;;;;;;6.78;2.35;;;;;;;14.34;52.94;101896.34;5023587;28;20080;-70
2021/08/14 02:43:03;;;;;;;10.25;2.60;;;;;;;14.41;52.95;101895.22;5035625;28;20218;-70
2021/08/14 02:45:28;;;;;;;7.93;3.22;;;;;;;14.42;52.96;101901.34;5035745;28;20462;-70
2021/08/14 02:47:56;;;;;;;9.35;3.28;;;;;;;14.29;53.38;101896.53;5031066;28;20033;-70
2021/08/14 02:50:23;;;;;;;11.63;3.35;;;;;;;14.47;52.77;101909.91;5037184;28;20098;-70
2021/08/14 02:52:49;;;;;;;9.77;3.50;;;;;;;14.47;52.53;101900.22;5035942;28;20475;-71
2021/08/14 02:55:15;;;;;;;12.00;3.63;;;;;;;14.49;52.39;101895.75;5040998;28;20061;-71
2021/08/14 02:57:40;;;;;;;9.00;3.08;;;;;;;14.45;52.68;101888.06;5037606;28;20076;-70
2021/08/14 03:00:07;;;;;;;8.68;2.88;;;;;;;14.30;53.05;101889.47;5038645;28;20057;-71
2021/08/14 03:02:32;;;;;;;9.05;2.70;;;;;;;14.40;52.72;101882.09;5037776;28;20029;-71
2021/08/14 03:04:58;;;;;;;14.07;2.83;;;;;;;14.07;53.66;101879.88;5037272;28;20032;-70
2021/08/14 03:07:23;;;;;;;13.18;3.45;;;;;;;14.30;53.25;101882.47;5040004;28;20445;-70
2021/08/14 03:09:48;;;;;;;15.52;2.45;;;;;;;14.18;53.26;101877.69;5034802;28;20025;-70
2021/08/14 03:12:14;;;;;;;12.63;3.13;;;;;;;14.34;52.58;101873.56;5037317;28;21080;-70
2021/08/14 03:14:39;;;;;;;8.90;1.95;;;;;;;14.46;52.50;101876.63;5036561;28;20044;-71
2021/08/14 03:17:05;;;;;;;7.80;3.33;;;;;;;14.12;53.36;101865.66;5039484;28;20074;-70
2021/08/14 03:19:32;;;;;;;19.38;2.88;;;;;;;14.08;53.51;101858.81;5040450;28;20547;-69
2021/08/14 03:21:57;;;;;;;13.73;3.03;;;;;;;14.06;53.31;101858.00;5030709;28;20032;-70
2021/08/14 03:24:23;;;;;;;7.35;2.35;;;;;;;14.28;52.80;101863.28;5040112;28;20037;-70
2021/08/14 03:26:49;;;;;;;11.27;3.40;;;;;;;13.68;54.61;101869.97;5014116;28;20573;-69
2021/08/14 03:29:15;;;;;;;7.85;2.78;;;;;;;14.05;53.74;101863.31;5036819;28;20049;-70
2021/08/14 03:31:40;;;;;;;14.32;3.25;;;;;;;14.20;53.32;101860.06;5036828;28;20108;-70
2021/08/14 03:34:05;;;;;;;10.75;3.17;;;;;;;13.82;54.35;101854.53;5037552;28;20422;-70
2021/08/14 03:36:31;;;;;;;14.52;3.42;;;;;;;14.28;53.39;101859.78;5039666;28;20021;-71
2021/08/14 03:38:56;;;;;;;12.73;2.70;;;;;;;14.32;52.84;101864.88;5032760;28;20099;-70
2021/08/14 03:41:22;;;;;;;18.67;3.05;;;;;;;14.39;52.34;101859.34;5033830;28;20146;-70
2021/08/14 03:43:47;;;;;;;20.70;3.40;;;;;;;14.29;52.92;101864.97;5041229;28;20061;-71
2021/08/14 03:46:13;;;;;;;6.95;2.38;;;;;;;14.41;52.44;101852.28;5030974;28;20055;-71
2021/08/14 03:48:38;;;;;;;13.00;3.10;;;;;;;14.38;52.93;101855.00;5038604;28;20021;-70
2021/08/14 03:51:04;;;;;;;8.85;2.90;;;;;;;14.39;52.63;101854.06;5037249;28;20024;-72
2021/08/14 03:53:31;;;;;;;10.88;2.45;;;;;;;14.49;52.45;101853.69;5033604;28;20113;-70
2021/08/14 03:55:57;;;;;;;14.05;2.97;;;;;;;14.48;52.42;101856.38;5033819;28;20044;-70
2021/08/14 03:58:22;;;;;;;10.35;2.78;;;;;;;14.28;53.17;101854.53;5035491;28;20033;-71
2021/08/14 04:00:48;;;;;;;7.20;3.03;;;;;;;14.30;52.90;101853.56;5037743;28;20025;-70
2021/08/14 04:03:13;;;;;;;13.43;4.03;;;;;;;13.56;55.18;101867.75;5036828;28;20033;-70
2021/08/14 04:05:38;;;;;;;10.90;2.75;;;;;;;14.26;53.35;101851.97;5040654;28;20056;-70
2021/08/14 04:08:04;;;;;;;13.68;2.70;;;;;;;14.40;52.92;101859.28;5036652;28;20078;-71
2021/08/14 04:10:29;;;;;;;12.80;4.05;;;;;;;13.65;55.01;101859.56;5039056;28;20040;-69
2021/08/14 04:12:55;;;;;;;8.57;2.38;;;;;;;14.42;52.90;101864.53;5038975;28;20091;-70
2021/08/14 04:15:20;;;;;;;16.73;3.08;;;;;;;14.30;52.88;101863.19;5036122;28;20052;-70
2021/08/14 04:17:46;;;;;;;9.45;2.63;;;;;;;14.17;53.64;101868.09;5035427;28;20483;-70
2021/08/14 04:20:12;;;;;;;12.13;3.05;;;;;;;14.48;52.70;101861.66;5041120;28;20146;-70
2021/08/14 04:22:37;;;;;;;10.38;3.72;;;;;;;14.11;53.58;101860.44;5040716;28;20040;-69
2021/08/14 04:25:03;;;;;;;12.25;3.20;;;;;;;14.41;52.83;101860.16;5035366;28;20057;-70
2021/08/14 04:27:29;;;;;;;11.15;2.38;;;;;;;14.42;52.84;101859.25;5042887;28;20033;-70
2021/08/14 04:29:54;;;;;;;15.05;3.25;;;;;;;14.40;52.99;101847.91;5043392;28;20036;-69
2021/08/14 04:32:20;;;;;;;10.07;2.20;;;;;;;14.59;52.78;101846.28;5040328;28;20037;-70
2021/08/14 04:34:46;;;;;;;17.10;3.72;;;;;;;13.81;54.21;101837.09;5036127;28;20034;-69
2021/08/14 04:37:13;;;;;;;10.75;2.45;;;;;;;14.28;53.47;101847.50;5029626;28;20041;-69
2021/08/14 04:39:39;;;;;;;7.70;2.30;;;;;;;14.41;53.12;101849.63;5047590;28;20029;-69
2021/08/14 04:42:04;;;;;;;14.43;2.95;;;;;;;14.56;52.68;101846.38;5037946;28;20052;-70
2021/08/14 04:44:30;;;;;;;10.98;2.72;;;;;;;14.52;52.56;101850.94;5045393;28;20505;-69
2021/08/14 04:46:55;;;;;;;9.48;2.42;;;;;;;14.47;52.96;101852.88;5040118;28;20037;-69
2021/08/14 04:49:21;;;;;;;14.35;3.35;;;;;;;14.50;52.83;101854.53;5041662;28;20807;-70
2021/08/14 04:51:46;;;;;;;16.50;4.47;;;;;;;13.96;53.91;101848.75;5036734;28;20009;-70
2021/08/14 04:54:12;;;;;;;9.35;2.50;;;;;;;14.11;54.10;101861.28;5055765;28;20017;-70
2021/08/14 04:56:37;;;;;;;14.68;3.40;;;;;;;13.80;55.04;101855.53;5022405;28;20044;-69
2021/08/14 04:59:03;;;;;;;8.90;3.05;;;;;;;14.42;53.46;101854.84;5034636;28;20061;-69
2021/08/14 05:01:28;;;;;;;11.88;2.78;;;;;;;14.58;52.88;101860.34;5036867;28;20029;-70
2021/08/14 05:03:54;;;;;;;13.27;3.00;;;;;;;14.81;52.37;101861.16;5041857;28;20116;-69
2021/08/14 05:06:19;;;;;;;9.80;2.58;;;;;;;14.91;52.12;101870.38;5027217;28;20071;-70
2021/08/14 05:08:45;;;;;;;15.43;3.03;;;;;;;14.94;51.90;101859.69;5037086;28;20044;-70
2021/08/14 05:11:10;;;;;;;10.77;2.65;;;;;;;14.99;51.84;101860.34;5035092;28;20040;-70
2021/08/14 05:13:35;;;;;;;18.40;3.40;;;;;;;14.82;52.05;101854.97;5041388;28;20040;-70
2021/08/14 05:16:01;;;;;;;11.25;2.40;;;;;;;15.10;51.40;101852.88;5037531;28;20035;-70
2021/08/14 05:18:26;;;;;;;13.20;3.13;;;;;;;15.25;51.00;101861.03;5023945;28;20047;-70
2021/08/14 05:20:52;;;;;;;13.50;2.97;;;;;;;15.14;51.42;101857.06;5037038;28;20028;-69
2021/08/14 05:23:17;;;;;;;16.83;3.25;;;;;;;14.47;52.90;101862.56;5038348;28;20190;-70
2021/08/14 05:25:43;;;;;;;13.65;3.40;;;;;;;14.69;52.53;101855.47;5040329;28;20108;-69
2021/08/14 05:28:08;;;;;;;10.80;2.58;;;;;;;15.07;51.82;101863.53;5034206;28;20033;-70
2021/08/14 05:30:33;;;;;;;13.32;4.05;;;;;;;14.58;53.04;101854.22;5037479;28;20422;-70
2021/08/14 05:32:59;;;;;;;14.07;3.00;;;;;;;13.97;54.53;101857.50;5042966;28;20090;-70
2021/08/14 05:35:24;;;;;;;11.45;4.38;;;;;;;14.55;53.73;101849.94;5037570;28;20036;-71
2021/08/14 05:37:50;;;;;;;7.65;2.88;;;;;;;15.06;52.38;101851.28;5040573;28;20166;-70
2021/08/14 05:40:15;;;;;;;14.25;3.80;;;;;;;14.30;53.99;101853.56;5042830;28;20040;-70
2021/08/14 05:42:41;;;;;;;10.68;3.10;;;;;;;14.75;53.32;101852.59;5040386;28;20021;-69
2021/08/14 05:45:07;;;;;;;11.07;3.00;;;;;;;15.37;52.00;101849.94;5045323;28;20567;-70
2021/08/14 05:47:33;;;;;;;15.07;3.42;;;;;;;15.34;51.89;101852.72;5037052;28;20033;-70
2021/08/14 05:49:58;;;;;;;12.85;3.50;;;;;;;15.24;51.83;101854.03;5037205;28;20037;-71
2021/08/14 05:52:24;;;;;;;9.48;3.67;;;;;;;15.59;51.18;101855.97;5038425;28;20045;-70
2021/08/14 05:54:50;;;;;;;9.80;3.05;;;;;;;15.58;51.03;101851.63;5037408;28;20079;-70
2021/08/14 05:57:15;;;;;;;13.95;3.38;;;;;;;15.73;50.66;101854.50;5033861;28;20037;-71
2021/08/14 05:59:41;;;;;;;14.18;3.50;;;;;;;15.91;50.50;101848.34;5021698;28;20083;-71
2021/08/14 06:02:06;;;;;;;13.20;3.45;;;;;;;14.87;53.07;101850.38;5040900;28;20039;-72
2021/08/14 06:04:32;;;;;;;18.33;4.00;;;;;;;15.55;51.60;101849.13;5017679;28;20029;-71
2021/08/14 06:06:57;;;;;;;14.27;3.40;;;;;;;15.45;51.95;101863.63;5040574;28;20032;-71
2021/08/14 06:09:23;;;;;;;16.50;4.15;;;;;;;16.21;50.82;101850.47;5031320;28;20041;-70
2021/08/14 06:11:48;;;;;;;16.42;3.80;;;;;;;16.50;49.13;101853.47;5030789;28;20029;-69
2021/08/14 06:14:14;;;;;;;11.98;3.10;;;;;;;16.71;49.56;101851.53;5036532;28;20069;-70
2021/08/14 06:16:40;;;;;;;8.48;3.10;;;;;;;18.40;45.25;101853.91;5041585;28;20049;-70
2021/08/14 06:19:06;;;;;;;18.48;4.43;;;;;;;18.52;43.98;101849.72;5038156;28;20033;-70
2021/08/14 06:21:32;;;;;;;11.93;3.28;;;;;;;19.57;41.56;101849.59;5035619;28;20470;-69
2021/08/14 06:23:58;;;;;;;13.02;2.83;;;;;;;21.15;38.27;101848.91;5033467;28;20116;-69
2021/08/14 06:26:24;;;;;;;6.30;2.78;;;;;;;21.75;37.73;101840.19;5019368;28;20037;-70
2021/08/14 06:28:49;;;;;;;9.15;2.30;;;;;;;23.77;35.60;101840.81;5037908;28;20924;-70
2021/08/14 06:31:16;;;;;;;11.68;3.15;;;;;;;22.99;34.51;101845.22;5039335;28;20041;-70
2021/08/14 06:33:43;;;;;;;8.13;2.40;;;;;;;23.49;34.71;101847.53;5036251;28;20096;-69
2021/08/14 06:36:08;;;;;;;11.63;3.97;;;;;;;22.30;35.82;101837.97;5034152;28;20037;-69
2021/08/14 06:38:36;;;;;;;13.90;4.10;;;;;;;24.06;33.59;101840.25;5020051;28;20029;-71
2021/08/14 06:41:01;;;;;;;15.57;3.53;;;;;;;23.31;33.77;101839.19;5020813;28;20029;-70
2021/08/14 06:43:27;;;;;;;8.80;2.33;;;;;;;23.98;33.46;101832.88;5035843;28;20032;-70
2021/08/14 06:45:52;;;;;;;11.52;2.83;;;;;;;25.58;31.11;101832.63;5040094;28;20025;-68
2021/08/14 06:48:18;;;;;;;9.73;3.33;;;;;;;24.86;31.63;101829.03;5034744;28;20037;-70
2021/08/14 06:50:43;;;;;;;12.93;2.95;;;;;;;21.00;39.21;101836.69;5032151;28;20479;-71
2021/08/14 06:53:09;;;;;;;16.92;3.97;;;;;;;21.15;38.89;101832.94;5038821;28;20060;-70
2021/08/14 06:55:34;;;;;;;13.23;3.58;;;;;;;21.30;38.99;101831.03;5036471;28;20051;-70
2021/08/14 06:57:59;;;;;;;11.13;3.08;;;;;;;20.10;40.96;101829.38;5019380;28;20017;-71
2021/08/14 07:00:25;;;;;;;12.13;3.67;;;;;;;19.23;43.18;101829.59;5033897;28;20482;-70
2021/08/14 07:02:51;;;;;;;9.82;3.50;;;;;;;18.21;45.35;101821.53;5035323;28;20467;-70
2021/08/14 07:05:17;;;;;;;18.88;4.30;;;;;;;18.40;45.66;101816.84;5040977;28;20052;-70
2021/08/14 07:07:42;;;;;;;13.38;3.63;;;;;;;18.71;45.08;101825.63;5038769;28;20102;-70
2021/08/14 07:10:08;;;;;;;16.15;4.18;;;;;;;17.91;47.13;101824.91;5029789;28;20031;-70
2021/08/14 07:12:34;;;;;;;15.60;4.65;;;;;;;17.97;47.33;101829.88;5037040;28;20058;-71
2021/08/14 07:14:59;;;;;;;16.63;4.07;;;;;;;16.63;50.43;101830.81;5020573;28;20491;-70
2021/08/14 07:17:25;;;;;;;13.32;4.88;;;;;;;18.04;47.42;101825.94;5038109;28;20055;-70
2021/08/14 07:19:51;;;;;;;14.55;4.57;;;;;;;18.29;46.85;101835.16;5033600;28;20286;-70
2021/08/14 07:22:17;;;;;;;13.70;3.65;;;;;;;17.89;47.21;101847.09;5036270;28;20513;-71
2021/08/14 07:24:43;;;;;;;15.18;3.92;;;;;;;18.11;46.69;101846.75;5025831;28;20036;-69
2021/08/14 07:27:08;;;;;;;10.20;3.75;;;;;;;18.00;46.83;101848.19;5035670;28;20037;-70
2021/08/14 07:29:34;;;;;;;15.98;4.05;;;;;;;17.84;46.91;101844.72;5033062;28;20055;-70
2021/08/14 07:31:59;;;;;;;15.98;4.22;;;;;;;18.63;46.27;101839.34;5032803;28;20708;-70
2021/08/14 07:34:25;;;;;;;15.10;3.90;;;;;;;18.95;45.15;101838.38;5033761;28;20040;-70
2021/08/14 07:36:50;;;;;;;13.13;4.85;;;;;;;18.23;47.04;101835.53;5037499;28;20112;-72
2021/08/14 07:39:17;;;;;;;11.48;3.70;;;;;;;18.04;46.93;101836.50;5034109;28;20044;-70
2021/08/14 07:41:42;;;;;;;16.70;4.22;;;;;;;19.74;43.72;101834.41;5036089;28;20032;-70
2021/08/14 07:44:08;;;;;;;22.17;5.20;;;;;;;20.88;40.54;101841.03;5036552;28;20108;-70
2021/08/14 07:46:34;;;;;;;18.52;4.00;;;;;;;21.69;38.91;101837.13;5033219;28;20044;-71
2021/08/14 07:49:00;;;;;;;18.63;3.83;;;;;;;21.70;38.74;101826.38;5033759;28;20505;-71
2021/08/14 07:51:25;;;;;;;14.55;2.97;;;;;;;21.14;40.71;101840.09;5023303;28;20032;-70
2021/08/14 07:53:51;;;;;;;14.52;3.78;;;;;;;20.41;42.47;101832.66;5037533;28;20119;-70
2021/08/14 07:56:16;;;;;;;16.50;3.72;;;;;;;21.29;40.23;101832.84;5040831;28;20376;-71
2021/08/14 07:58:42;;;;;;;14.60;3.33;;;;;;;20.81;42.04;101832.59;5040871;28;20100;-71
2021/08/14 08:01:07;;;;;;;13.82;3.50;;;;;;;21.23;40.47;101840.41;5035833;28;20692;-70
2021/08/14 08:03:32;;;;;;;13.90;3.45;;;;;;;20.50;41.72;101833.84;5040599;28;20036;-70
2021/08/14 08:05:58;;;;;;;18.08;3.97;;;;;;;19.97;43.36;101832.91;5025596;28;20795;-71
2021/08/14 08:08:23;;;;;;;16.88;3.70;;;;;;;19.78;43.90;101839.41;5023895;28;20560;-71
2021/08/14 08:10:49;;;;;;;19.63;3.63;;;;;;;19.60;44.36;101841.44;5026587;28;20025;-71
2021/08/14 08:13:14;;;;;;;15.48;3.97;;;;;;;18.81;45.82;101847.97;5023593;28;20127;-71
2021/08/14 08:15:40;;;;;;;14.23;5.25;;;;;;;19.37;44.24;101847.28;5039305;28;20033;-70
2021/08/14 08:18:06;;;;;;;16.23;3.47;;;;;;;19.67;43.85;101847.19;5040300;28;20025;-70
2021/08/14 08:20:31;;;;;;;10.40;3.33;;;;;;;19.79;43.40;101850.84;5047174;28;20040;-69
2021/08/14 08:22:57;;;;;;;11.45;3.20;;;;;;;19.45;45.05;101858.25;5041106;28;20460;-71
2021/08/14 08:25:22;;;;;;;15.43;5.05;;;;;;;18.74;45.91;101859.88;5037644;28;20034;-70
2021/08/14 08:27:49;;;;;;;11.57;4.65;;;;;;;19.12;45.33;101862.03;5036757;28;20556;-70
2021/08/14 08:30:19;;;;;;;13.57;3.80;;;;;;;19.02;45.57;101850.31;5040292;28;20079;-70
2021/08/14 08:32:45;;;;;;;14.63;5.15;;;;;;;19.50;43.98;101856.16;5043356;28;20700;-70
2021/08/14 08:35:12;;;;;;;16.50;4.22;;;;;;;20.45;42.64;101839.47;5035501;28;20402;-70
2021/08/14 08:37:38;;;;;;;16.52;4.60;;;;;;;20.24;42.54;101840.88;5040468;28;20124;-71
2021/08/14 08:40:05;;;;;;;16.80;3.85;;;;;;;20.23;42.93;101833.88;5040388;28;20029;-70
2021/08/14 08:42:31;;;;;;;16.50;5.07;;;;;;;20.27;42.91;101825.63;5034663;28;20043;-71
2021/08/14 08:44:58;;;;;;;16.80;4.30;;;;;;;20.80;42.00;101814.97;5041477;28;20033;-70
2021/08/14 08:47:25;;;;;;;16.20;3.50;;;;;;;22.17;39.12;101813.22;5037422;28;20052;-70
2021/08/14 08:49:56;;;;;;;15.77;3.83;;;;;;;22.20;38.94;101814.81;5044739;28;20549;-72
2021/08/14 08:52:22;;;;;;;16.45;3.03;;;;;;;22.46;38.53;101808.38;5040318;28;20025;-71
2021/08/14 08:54:49;;;;;;;11.60;3.22;;;;;;;21.67;39.94;101818.66;5022735;28;20387;-70
2021/08/14 08:57:15;;;;;;;17.55;4.43;;;;;;;20.48;42.02;101812.69;5034487;28;20441;-70
2021/08/14 08:59:41;;;;;;;12.02;3.55;;;;;;;20.08;42.88;101810.03;5020750;28;20160;-69
2021/08/14 09:02:20;;;;;;;15.15;3.97;;;;;;;19.97;43.50;101811.69;5035888;28;20382;-70
2021/08/14 09:04:46;;;;;;;19.38;3.90;;;;;;;19.38;44.57;101810.06;5040248;28;20037;-70
2021/08/14 09:07:27;;;;;;;17.15;3.80;;;;;;;18.26;46.55;101820.31;5037585;28;20032;-70
2021/08/14 09:10:00;;;;;;;11.27;3.08;;;;;;;19.75;44.71;101817.53;5037995;28;20040;-70
2021/08/14 09:12:35;;;;;;;12.68;3.85;;;;;;;19.15;45.47;101811.53;5036024;28;20113;-70
2021/08/14 09:15:02;;;;;;;17.00;4.13;;;;;;;18.74;46.86;101812.19;5034842;28;20036;-70
2021/08/14 09:17:29;;;;;;;14.95;4.18;;;;;;;19.21;45.53;101808.50;5036757;28;20083;-70
2021/08/14 09:20:08;;;;;;;16.90;4.28;;;;;;;19.52;44.98;101817.16;5036553;28;20027;-70
2021/08/14 09:22:33;;;;;;;13.52;4.40;;;;;;;19.16;45.21;101826.47;5047312;28;20153;-70
2021/08/14 09:25:14;;;;;;;13.27;3.70;;;;;;;19.06;45.87;101817.41;5035577;28;20507;-70
2021/08/14 09:28:10;;;;;;;14.88;3.55;;;;;;;19.63;45.53;101809.41;5037925;28;20140;-70
2021/08/14 09:30:52;;;;;;;11.50;4.00;;;;;;;19.69;44.36;101809.00;5028063;28;20033;-71
2021/08/14 09:33:23;;;;;;;16.98;3.63;;;;;;;20.02;43.43;101810.44;5029189;28;20049;-71
2021/08/14 09:36:09;;;;;;;11.70;3.22;;;;;;;20.16;43.78;101800.72;5043976;28;20036;-70
2021/08/14 09:38:41;;;;;;;12.95;3.38;;;;;;;19.79;43.20;101792.50;5042253;28;20540;-71
2021/08/14 09:41:08;;;;;;;;;;;;;;;20.11;43.53;101791.25;5036127;28;20148;-69
2021/08/14 09:43:35;;;;;;;17.30;3.88;;;;;;;20.31;42.65;101794.41;5037689;28;19933;-70
2021/08/14 09:46:01;;;;;;;13.30;4.38;;;;;;;19.87;43.46;101796.38;5036423;28;20037;-71
2021/08/14 09:48:28;;;;;;;13.70;3.92;;;;;;;20.10;43.69;101802.84;5036468;28;20048;-71
2021/08/14 09:50:53;;;;;;;11.68;3.45;;;;;;;20.61;41.49;101798.59;5034627;28;20033;-70
2021/08/14 09:53:19;;;;;;;14.60;4.43;;;;;;;19.99;42.26;101807.13;5036135;28;20545;-69
2021/08/14 09:55:47;;;;;;;7.28;2.58;;;;;;;19.92;41.04;101804.88;5017652;28;20061;-70
2021/08/14 09:58:20;;;;;;;8.45;2.92;;;;;;;20.73;40.23;101811.91;5026787;28;20029;-72
2021/08/14 10:00:48;;;;;;;13.45;2.75;;;;;;;20.65;39.90;101813.38;5035730;28;20046;-70
2021/08/14 10:03:15;;;;;;;10.13;2.20;;;;;;;20.96;39.04;101806.81;5035713;28;20033;-70
2021/08/14 10:05:42;;;;;;;8.13;2.15;;;;;;;20.99;38.79;101806.59;5035262;28;20025;-71
2021/08/14 10:08:08;;;;;;;7.70;2.13;;;;;;;20.38;40.79;101801.00;5036811;28;20474;-70
2021/08/14 10:10:33;;;;;;;9.25;2.40;;;;;;;20.10;40.50;101810.78;5019930;28;20108;-70
2021/08/14 10:13:00;;;;;;;8.45;2.33;;;;;;;21.27;39.51;101789.56;5035836;28;20033;-70
2021/08/14 10:15:27;;;;;;;7.85;2.33;;;;;;;20.81;39.82;101800.72;5028192;28;20485;-70
2021/08/14 10:17:53;;;;;;;13.02;3.10;;;;;;;21.80;38.34;101794.63;5035525;28;20056;-71
2021/08/14 10:20:19;;;;;;;8.30;2.05;;;;;;;22.10;36.61;101793.38;5031964;28;20028;-70
2021/08/14 10:22:46;;;;;;;9.88;2.13;;;;;;;21.46;37.09;101804.19;5037450;28;20039;-70
2021/08/14 10:25:18;;;;;;;10.88;2.30;;;;;;;22.10;36.11;101780.91;5030683;28;20099;-70
2021/08/14 10:28:10;;;;;;;9.18;2.08;;;;;;;21.95;36.67;101782.00;5031534;28;20037;-70
2021/08/14 10:30:49;;;;;;;;;;;;;;;21.58;37.16;101775.88;5034077;28;20589;-70
2021/08/14 10:33:27;;;;;;;7.85;2.85;;;;;;;21.11;38.14;101795.13;5038599;28;19923;-70
2021/08/14 10:36:34;;;;;;;8.93;2.35;;;;;;;20.91;39.55;101799.19;5095405;27;20463;-69
2021/08/14 10:39:14;;;;;;;4.97;2.50;;;;;;;20.43;40.18;101784.78;5051513;28;20320;-69
2021/08/14 10:41:41;;;;;;;10.65;2.53;;;;;;;20.34;40.22;101783.59;5101541;28;20587;-70
2021/08/14 10:44:07;;;;;;;8.90;2.10;;;;;;;20.72;40.55;101782.78;5103989;28;20400;-69
2021/08/14 10:46:43;;;;;;;10.05;2.25;;;;;;;21.53;38.31;101777.09;5095940;28;20038;-69
2021/08/14 10:49:19;;;;;;;9.90;2.45;;;;;;;20.97;38.98;101781.09;5092725;28;20093;-68
2021/08/14 10:52:05;;;;;;;9.20;2.35;;;;;;;20.84;39.51;101787.28;5092456;28;20161;-69
2021/08/14 10:54:33;;;;;;;8.75;2.80;;;;;;;20.70;39.67;101784.69;5081050;28;20071;-69
2021/08/14 10:57:02;;;;;;;9.73;2.47;;;;;;;20.45;40.42;101781.06;5094077;28;20040;-69
2021/08/14 10:59:40;;;;;;;10.65;2.20;;;;;;;20.87;40.21;101787.06;5095387;28;20051;-68
2021/08/14 11:02:14;;;;;;;11.15;2.33;;;;;;;20.79;40.20;101773.41;5092132;28;20115;-69
2021/08/14 11:04:48;;;;;;;11.07;2.30;;;;;;;21.26;38.97;101771.06;5093455;28;20058;-69
2021/08/14 11:07:17;;;;;;;10.43;2.53;;;;;;;21.63;38.61;101774.59;5094388;28;20451;-69
2021/08/14 11:09:52;;;;;;;7.38;2.17;;;;;;;21.32;37.55;101775.94;5102806;28;20062;-69
2021/08/14 11:12:42;;;;;;;10.15;2.15;;;;;;;20.78;39.35;101774.38;5106616;28;20043;-70
2021/08/14 11:15:15;;;;;;;8.10;2.30;;;;;;;22.39;36.61;101776.03;5105588;28;20032;-69
2021/08/14 11:17:41;;;;;;;11.65;2.08;;;;;;;22.89;34.88;101770.41;5116650;28;20036;-69
2021/08/14 11:20:18;;;;;;;6.75;1.90;;;;;;;22.64;36.04;101770.63;5107571;28;20019;-68